createdAt,value
2023-04-02T00:02:32.150Z,100.00
2023-04-02T00:05:31.303Z,100.00
2023-04-02T00:08:03.367Z,100.00
2023-04-02T00:10:33.748Z,100.00
2023-04-02T00:13:07.774Z,100.00
2023-04-02T00:15:36.854Z,100.00
2023-04-02T00:18:06.048Z,100.00
2023-04-02T00:20:42.689Z,100.00
2023-04-02T00:23:13.973Z,100.00
2023-04-02T00:25:46.346Z,100.00
2023-04-02T00:28:15.965Z,100.00
2023-04-02T00:30:49.144Z,100.00
2023-04-02T00:33:19.535Z,100.00
2023-04-02T00:35:49.560Z,100.00
2023-04-02T00:38:23.748Z,100.00
2023-04-02T00:40:53.773Z,100.00
2023-04-02T00:43:22.808Z,100.00
2023-04-02T00:45:56.308Z,100.00
2023-04-02T00:48:42.077Z,100.00
2023-04-02T00:51:17.001Z,100.00
2023-04-02T00:53:49.191Z,100.00
2023-04-02T00:56:22.182Z,100.00
2023-04-02T00:58:54.526Z,100.00
2023-04-02T01:01:27.609Z,100.00
2023-04-02T01:03:58.327Z,100.00
2023-04-02T01:06:31.266Z,100.00
2023-04-02T01:09:13.336Z,100.00
2023-04-02T01:11:59.537Z,100.00
2023-04-02T01:14:41.081Z,100.00
2023-04-02T01:17:23.065Z,100.00
2023-04-02T01:20:38.808Z,100.00
2023-04-02T01:23:14.606Z,100.00
2023-04-02T01:25:48.283Z,100.00
2023-04-02T01:28:20.837Z,100.00
2023-04-02T01:30:54.149Z,100.00
2023-04-02T01:33:24.843Z,100.00
2023-04-02T01:35:58.599Z,100.00
2023-04-02T01:38:33.644Z,100.00
2023-04-02T01:41:08.861Z,100.00
2023-04-02T01:43:44.973Z,100.00
2023-04-02T01:46:27.237Z,100.00
2023-04-02T01:48:55.466Z,100.00
2023-04-02T01:51:31.844Z,100.00
2023-04-02T01:54:02.249Z,100.00
2023-04-02T01:56:31.509Z,100.00
2023-04-02T01:59:01.298Z,100.00
2023-04-02T02:01:36.839Z,100.00
2023-04-02T02:04:06.051Z,100.00
2023-04-02T02:06:34.287Z,100.00
2023-04-02T02:09:04.818Z,100.00
2023-04-02T02:11:36.519Z,100.00
2023-04-02T02:14:14.128Z,100.00
2023-04-02T02:16:44.177Z,100.00
2023-04-02T02:19:24.164Z,100.00
2023-04-02T02:21:54.742Z,100.00
2023-04-02T02:24:25.219Z,100.00
2023-04-02T02:27:05.756Z,100.00
2023-04-02T02:29:38.345Z,100.00
2023-04-02T02:32:11.331Z,100.00
2023-04-02T02:34:42.420Z,100.00
2023-04-02T02:37:16.087Z,100.00
2023-04-02T02:39:46.575Z,100.00
2023-04-02T02:42:22.400Z,100.00
2023-04-02T02:44:52.221Z,100.00
2023-04-02T02:47:28.665Z,100.00
2023-04-02T02:50:01.417Z,100.00
2023-04-02T02:52:32.940Z,100.00
2023-04-02T02:55:04.523Z,100.00
2023-04-02T02:57:37.444Z,100.00
2023-04-02T03:00:09.830Z,100.00
2023-04-02T03:02:43.232Z,100.00
2023-04-02T03:05:19.583Z,100.00
2023-04-02T03:07:48.265Z,100.00
2023-04-02T03:10:20.588Z,100.00
2023-04-02T03:12:54.849Z,100.00
2023-04-02T03:15:28.579Z,100.00
2023-04-02T03:18:02.927Z,100.00
2023-04-02T03:20:37.578Z,100.00
2023-04-02T03:23:09.960Z,100.00
2023-04-02T03:25:42.834Z,100.00
2023-04-02T03:28:16.944Z,100.00
2023-04-02T03:30:50.022Z,100.00
2023-04-02T03:33:25.102Z,100.00
2023-04-02T03:35:59.206Z,100.00
2023-04-02T03:38:31.400Z,100.00
2023-04-02T03:41:08.618Z,100.00
2023-04-02T03:43:41.974Z,100.00
2023-04-02T03:46:24.501Z,100.00
2023-04-02T03:48:56.173Z,100.00
2023-04-02T03:51:29.032Z,100.00
2023-04-02T03:53:57.558Z,100.00
2023-04-02T03:56:31.529Z,100.00
2023-04-02T03:59:08.270Z,100.00
2023-04-02T04:01:42.921Z,100.00
2023-04-02T04:04:17.326Z,100.00
2023-04-02T04:06:47.667Z,100.00
2023-04-02T04:09:25.282Z,100.00
2023-04-02T04:11:57.468Z,100.00
2023-04-02T04:14:32.149Z,100.00
2023-04-02T04:17:05.504Z,100.00
2023-04-02T04:19:41.974Z,100.00
2023-04-02T04:22:18.010Z,100.00
2023-04-02T04:24:47.217Z,100.00
2023-04-02T04:27:25.175Z,100.00
2023-04-02T04:29:58.963Z,100.00
2023-04-02T04:32:33.886Z,100.00
2023-04-02T04:35:09.386Z,100.00
2023-04-02T04:37:43.310Z,100.00
2023-04-02T04:40:18.477Z,100.00
2023-04-02T04:42:49.756Z,100.00
2023-04-02T04:45:50.560Z,100.00
2023-04-02T04:48:22.461Z,100.00
2023-04-02T04:50:57.671Z,100.00
2023-04-02T04:53:27.615Z,100.00
2023-04-02T04:56:05.991Z,100.00
2023-04-02T04:58:51.135Z,100.00
2023-04-02T05:01:26.890Z,100.00
2023-04-02T05:04:01.660Z,100.00
2023-04-02T05:06:44.059Z,100.00
2023-04-02T05:09:18.931Z,100.00
2023-04-02T05:11:51.707Z,100.00
2023-04-02T05:14:30.991Z,100.00
2023-04-02T05:17:08.041Z,100.00
2023-04-02T05:19:43.366Z,100.00
2023-04-02T05:22:25.278Z,93.88
2023-04-02T05:25:01.209Z,88.30
2023-04-02T05:27:40.995Z,88.39
2023-04-02T05:30:20.256Z,85.61
2023-04-02T05:32:52.473Z,82.79
2023-04-02T05:35:25.797Z,79.36
2023-04-02T05:37:55.517Z,75.25
2023-04-02T05:40:28.573Z,74.05
2023-04-02T05:42:58.942Z,73.04
2023-04-02T05:45:32.913Z,73.73
2023-04-02T05:48:05.929Z,72.12
2023-04-02T05:50:37.906Z,68.56
2023-04-02T05:53:14.720Z,69.33
2023-04-02T05:55:53.313Z,67.52
2023-04-02T06:01:15.415Z,65.15
2023-04-02T06:03:51.960Z,64.03
2023-04-02T06:06:29.189Z,67.00
2023-04-02T06:09:05.660Z,67.35
2023-04-02T06:11:42.224Z,67.85
2023-04-02T06:14:13.054Z,66.61
2023-04-02T06:16:42.371Z,64.34
2023-04-02T06:19:20.743Z,61.87
2023-04-02T06:21:50.906Z,62.54
2023-04-02T06:24:25.008Z,62.39
2023-04-02T06:26:57.928Z,62.37
2023-04-02T06:29:34.139Z,62.09
2023-04-02T06:32:03.614Z,62.33
2023-04-02T06:34:33.072Z,62.50
2023-04-02T06:37:04.441Z,61.88
2023-04-02T06:39:33.696Z,60.35
2023-04-02T06:42:05.458Z,60.41
2023-04-02T06:44:36.811Z,60.69
2023-04-02T06:47:12.780Z,57.88
2023-04-02T06:49:46.733Z,58.12
2023-04-02T06:52:21.513Z,57.81
2023-04-02T06:54:50.846Z,59.16
2023-04-02T06:57:20.219Z,58.56
2023-04-02T06:59:48.233Z,57.24
2023-04-02T07:02:28.944Z,58.68
2023-04-02T07:05:02.415Z,57.96
2023-04-02T07:07:30.377Z,56.79
2023-04-02T07:09:59.756Z,57.13
2023-04-02T07:12:28.052Z,55.80
2023-04-02T07:14:55.973Z,55.18
2023-04-02T07:17:23.902Z,54.74
2023-04-02T07:19:51.855Z,55.97
2023-04-02T07:22:22.860Z,54.98
2023-04-02T07:24:51.284Z,55.01
2023-04-02T07:27:21.335Z,54.11
2023-04-02T07:29:49.498Z,53.41
2023-04-02T07:32:19.550Z,51.85
2023-04-02T07:34:49.008Z,52.75
2023-04-02T07:37:17.236Z,50.98
2023-04-02T07:39:45.172Z,50.29
2023-04-02T07:42:13.224Z,49.29
2023-04-02T07:44:44.908Z,48.73
2023-04-02T07:47:12.777Z,49.01
2023-04-02T07:49:40.919Z,49.37
2023-04-02T07:52:09.221Z,47.34
2023-04-02T07:54:38.470Z,47.52
2023-04-02T07:57:06.609Z,46.15
2023-04-02T07:59:34.912Z,44.41
2023-04-02T08:02:04.504Z,44.76
2023-04-02T08:04:32.817Z,45.09
2023-04-02T08:07:04.424Z,46.11
2023-04-02T08:09:32.251Z,45.15
2023-04-02T08:12:00.118Z,45.71
2023-04-02T08:14:27.993Z,43.95
2023-04-02T08:16:56.980Z,44.23
2023-04-02T08:19:26.488Z,45.41
2023-04-02T08:21:54.617Z,45.67
2023-04-02T08:24:22.685Z,44.74
2023-04-02T08:26:51.512Z,45.04
2023-04-02T08:29:19.484Z,44.08
2023-04-02T08:31:48.006Z,44.47
2023-04-02T08:34:16.364Z,44.25
2023-04-02T08:36:46.325Z,43.52
2023-04-02T08:39:14.790Z,42.52
2023-04-02T08:41:48.542Z,41.74
2023-04-02T08:44:38.550Z,42.98
2023-04-02T08:47:07.444Z,44.14
2023-04-02T08:49:41.153Z,43.42
2023-04-02T08:52:22.192Z,44.49
2023-04-02T08:54:51.871Z,44.23
2023-04-02T08:57:26.612Z,43.90
2023-04-02T09:00:00.192Z,41.99
2023-04-02T09:02:36.708Z,41.60
2023-04-02T09:05:08.296Z,41.50
2023-04-02T09:07:37.822Z,40.02
2023-04-02T09:10:06.292Z,39.84
2023-04-02T09:12:34.250Z,40.36
2023-04-02T09:15:18.581Z,40.51
2023-04-02T09:17:54.095Z,39.85
2023-04-02T09:20:26.402Z,40.68
2023-04-02T09:22:58.907Z,41.51
2023-04-02T09:25:29.886Z,40.92
2023-04-02T09:28:01.746Z,43.81
2023-04-02T09:30:42.876Z,44.99
2023-04-02T09:33:11.322Z,45.66
2023-04-02T09:35:56.473Z,45.20
2023-04-02T09:38:29.087Z,46.09
2023-04-02T09:41:00.956Z,47.51
2023-04-02T09:43:30.376Z,47.40
2023-04-02T09:46:01.402Z,47.19
2023-04-02T09:48:32.818Z,47.00
2023-04-02T09:51:12.375Z,46.94
2023-04-02T09:53:43.080Z,46.47
2023-04-02T09:56:13.900Z,45.01
2023-04-02T09:58:44.204Z,43.89
2023-04-02T10:01:31.537Z,45.55
2023-04-02T10:04:00.552Z,46.40
2023-04-02T10:06:30.405Z,46.07
2023-04-02T10:09:20.585Z,44.47
2023-04-02T10:11:48.705Z,42.84
2023-04-02T10:14:24.089Z,42.88
2023-04-02T10:16:56.436Z,43.91
2023-04-02T10:19:29.885Z,44.18
2023-04-02T10:22:01.515Z,43.90
2023-04-02T10:24:30.772Z,42.06
2023-04-02T10:27:06.790Z,40.53
2023-04-02T10:30:04.057Z,41.11
2023-04-02T10:32:36.723Z,42.89
2023-04-02T10:35:12.665Z,40.70
2023-04-02T10:38:11.166Z,39.11
2023-04-02T10:40:44.944Z,38.78
2023-04-02T10:43:40.258Z,38.93
2023-04-02T10:46:16.151Z,38.26
2023-04-02T10:48:53.535Z,37.71
2023-04-02T10:51:33.328Z,39.09
2023-04-02T10:54:07.106Z,40.48
2023-04-02T10:56:48.033Z,40.83
2023-04-02T10:59:22.507Z,39.61
2023-04-02T11:01:52.668Z,37.71
2023-04-02T11:04:25.383Z,37.56
2023-04-02T11:07:11.162Z,37.95
2023-04-02T11:09:45.701Z,35.69
2023-04-02T11:12:23.753Z,36.03
2023-04-02T11:14:53.307Z,35.13
2023-04-02T11:17:22.949Z,35.14
2023-04-02T11:19:51.206Z,36.58
2023-04-02T11:22:21.858Z,37.16
2023-04-02T11:24:51.722Z,36.88
2023-04-02T11:27:27.451Z,37.19
2023-04-02T11:30:06.784Z,37.69
2023-04-02T11:32:37.416Z,37.48
2023-04-02T11:35:37.625Z,37.61
2023-04-02T11:38:38.787Z,36.67
2023-04-02T11:41:07.009Z,36.84
2023-04-02T11:44:03.541Z,37.31
2023-04-02T11:46:46.615Z,36.77
2023-04-02T11:49:41.608Z,36.27
2023-04-02T11:52:32.393Z,36.60
2023-04-02T11:55:33.739Z,36.46
2023-04-02T11:58:38.298Z,34.95
2023-04-02T12:01:45.416Z,33.36
2023-04-02T12:04:45.741Z,35.54
2023-04-02T12:07:46.743Z,37.61
2023-04-02T12:10:19.323Z,37.97
2023-04-02T12:12:47.517Z,36.17
2023-04-02T12:15:42.472Z,37.33
2023-04-02T12:18:17.151Z,39.06
2023-04-02T12:20:52.911Z,39.69
2023-04-02T12:23:23.745Z,40.37
2023-04-02T12:25:58.441Z,40.67
2023-04-02T12:28:28.949Z,38.46
2023-04-02T12:31:13.988Z,37.57
2023-04-02T12:33:42.935Z,36.99
2023-04-02T12:36:23.880Z,36.40
2023-04-02T12:38:54.467Z,36.51
2023-04-02T12:41:25.107Z,36.69
2023-04-02T12:43:59.790Z,37.37
2023-04-02T12:46:28.893Z,37.49
2023-04-02T12:49:03.205Z,35.94
2023-04-02T12:51:33.101Z,36.62
2023-04-02T12:54:01.207Z,36.77
2023-04-02T12:56:29.154Z,37.48
2023-04-02T12:58:58.153Z,38.06
2023-04-02T13:01:28.644Z,38.09
2023-04-02T13:04:04.974Z,38.38
2023-04-02T13:06:35.679Z,39.09
2023-04-02T13:09:06.674Z,39.34
2023-04-02T13:11:37.225Z,39.83
2023-04-02T13:14:07.486Z,39.52
2023-04-02T13:16:37.394Z,39.41
2023-04-02T13:19:27.829Z,39.17
2023-04-02T13:22:01.746Z,39.10
2023-04-02T13:24:32.374Z,38.72
2023-04-02T13:27:02.238Z,39.20
2023-04-02T13:29:31.373Z,38.88
2023-04-02T13:32:01.230Z,38.79
2023-04-02T13:34:29.705Z,38.81
2023-04-02T13:36:59.686Z,38.35
2023-04-02T13:39:30.263Z,38.44
2023-04-02T13:42:00.144Z,38.22
2023-04-02T13:44:30.360Z,37.40
2023-04-02T13:46:59.804Z,37.84
2023-04-02T13:49:29.570Z,38.33
2023-04-02T13:52:03.352Z,37.79
2023-04-02T13:54:35.090Z,38.08
2023-04-02T13:57:03.239Z,37.54
2023-04-02T13:59:31.526Z,37.70
2023-04-02T14:02:05.616Z,37.41
2023-04-02T14:04:40.207Z,37.50
2023-04-02T14:07:33.217Z,37.61
2023-04-02T14:10:06.515Z,36.97
2023-04-02T14:12:47.202Z,37.76
2023-04-02T14:15:29.139Z,37.30
2023-04-02T14:18:13.845Z,36.65
2023-04-02T14:20:53.622Z,37.36
2023-04-02T14:23:42.593Z,37.44
2023-04-02T14:26:19.823Z,37.38
2023-04-02T14:28:58.568Z,37.49
2023-04-02T14:31:35.963Z,37.68
2023-04-02T14:34:12.138Z,37.95
2023-04-02T14:36:56.517Z,37.87
2023-04-02T14:39:38.195Z,38.20
2023-04-02T14:42:13.906Z,37.46
2023-04-02T14:44:46.835Z,37.27
2023-04-02T14:47:20.119Z,37.75
2023-04-02T14:49:51.664Z,37.64
2023-04-02T14:52:24.634Z,37.58
2023-04-02T14:54:57.642Z,37.64
2023-04-02T14:57:30.814Z,37.51
2023-04-02T15:00:03.905Z,37.53
2023-04-02T15:02:39.388Z,37.67
2023-04-02T15:05:17.646Z,37.35
2023-04-02T15:07:51.802Z,37.54
2023-04-02T15:10:27.505Z,37.63
2023-04-02T15:12:56.720Z,37.42
2023-04-02T15:15:42.593Z,37.48
2023-04-02T15:18:14.733Z,37.95
2023-04-02T15:20:52.588Z,37.90
2023-04-02T15:23:32.786Z,37.93
2023-04-02T15:26:25.898Z,38.23
2023-04-02T15:29:04.941Z,38.07
2023-04-02T15:31:36.860Z,37.73
2023-04-02T15:34:18.424Z,37.87
2023-04-02T15:37:00.332Z,38.13
2023-04-02T15:39:40.158Z,38.25
2023-04-02T15:42:20.009Z,38.42
2023-04-02T15:45:03.250Z,38.13
2023-04-02T15:47:39.837Z,38.13
2023-04-02T15:50:16.514Z,37.69
2023-04-02T15:52:54.549Z,37.70
2023-04-02T15:55:26.756Z,38.25
2023-04-02T15:58:19.550Z,38.05
2023-04-02T16:00:57.689Z,37.69
2023-04-02T16:03:52.947Z,37.64
2023-04-02T16:06:28.071Z,37.51
2023-04-02T16:09:07.526Z,37.74
2023-04-02T16:11:36.451Z,37.74
2023-04-02T16:14:18.032Z,37.72
2023-04-02T16:16:49.157Z,37.84
2023-04-02T16:19:27.080Z,38.23
2023-04-02T16:22:02.586Z,38.59
2023-04-02T16:24:30.799Z,38.71
2023-04-02T16:27:11.806Z,38.34
2023-04-02T16:29:55.706Z,38.66
2023-04-02T16:32:43.907Z,38.90
2023-04-02T16:35:41.849Z,39.14
2023-04-02T16:38:23.404Z,39.35
2023-04-02T16:41:07.885Z,39.30
2023-04-02T16:43:47.466Z,39.55
2023-04-02T16:46:38.219Z,39.47
2023-04-02T16:49:18.806Z,39.35
2023-04-02T16:51:58.164Z,39.76
2023-04-02T16:54:32.762Z,39.78
2023-04-02T16:57:18.935Z,40.03
2023-04-02T16:59:57.541Z,40.03
2023-04-02T17:02:40.008Z,40.24
2023-04-02T17:05:20.454Z,40.56
2023-04-02T17:08:01.600Z,40.84
2023-04-02T17:10:32.634Z,41.28
2023-04-02T17:13:14.225Z,41.30
2023-04-02T17:15:43.456Z,41.88
2023-04-02T17:18:19.843Z,42.17
2023-04-02T17:20:48.098Z,42.87
2023-04-02T17:23:17.170Z,43.42
2023-04-02T17:25:51.610Z,43.38
2023-04-02T17:28:26.620Z,43.76
2023-04-02T17:30:58.755Z,44.84
2023-04-02T17:33:28.598Z,44.34
2023-04-02T17:36:25.249Z,44.63
2023-04-02T17:39:06.079Z,44.71
2023-04-02T17:41:41.525Z,44.88
2023-04-02T17:44:27.971Z,45.41
2023-04-02T17:47:02.174Z,45.66
2023-04-02T17:49:42.539Z,45.68
2023-04-02T17:52:20.517Z,46.21
2023-04-02T17:54:59.212Z,45.87
2023-04-02T17:57:38.907Z,46.46
2023-04-02T18:00:33.854Z,46.83
2023-04-02T18:03:19.654Z,46.50
2023-04-02T18:05:55.785Z,46.72
2023-04-02T18:08:34.697Z,47.19
2023-04-02T18:11:11.104Z,47.40
2023-04-02T18:13:47.723Z,48.02
2023-04-02T18:16:28.344Z,47.72
2023-04-02T18:19:11.379Z,48.10
2023-04-02T18:21:47.142Z,48.71
2023-04-02T18:24:34.576Z,49.37
2023-04-02T18:27:25.408Z,49.31
2023-04-02T18:30:00.965Z,49.94
2023-04-02T18:32:44.762Z,50.23
2023-04-02T18:35:19.181Z,50.27
2023-04-02T18:38:02.102Z,50.21
2023-04-02T18:40:43.361Z,50.08
2023-04-02T18:43:22.106Z,49.77
2023-04-02T18:45:59.991Z,49.79
2023-04-02T18:48:40.894Z,50.39
2023-04-02T18:51:15.095Z,50.25
2023-04-02T18:53:44.694Z,50.31
2023-04-02T18:56:15.369Z,50.38
2023-04-02T18:58:52.871Z,50.36
2023-04-02T19:01:27.966Z,50.26
2023-04-02T19:04:01.964Z,50.40
2023-04-02T19:06:37.791Z,50.17
2023-04-02T19:09:15.108Z,50.72
2023-04-02T19:11:43.207Z,50.54
2023-04-02T19:14:14.411Z,50.71
2023-04-02T19:17:03.415Z,50.50
2023-04-02T19:19:41.048Z,51.16
2023-04-02T19:22:17.534Z,51.21
2023-04-02T19:25:13.842Z,51.68
2023-04-02T19:27:55.175Z,51.64
2023-04-02T19:30:39.608Z,52.06
2023-04-02T19:33:19.049Z,52.03
2023-04-02T19:35:53.888Z,52.42
2023-04-02T19:38:44.572Z,52.35
2023-04-02T19:41:26.230Z,52.65
2023-04-02T19:43:56.089Z,52.78
2023-04-02T19:46:24.822Z,53.21
2023-04-02T19:48:59.845Z,53.02
2023-04-02T19:51:27.833Z,53.23
2023-04-02T19:53:55.739Z,53.88
2023-04-02T19:56:26.816Z,54.11
2023-04-02T19:58:56.621Z,54.25
2023-04-02T20:01:24.631Z,54.13
2023-04-02T20:03:52.614Z,54.32
2023-04-02T20:06:21.451Z,54.58
2023-04-02T20:08:49.362Z,54.71
2023-04-02T20:11:17.454Z,54.65
2023-04-02T20:13:46.696Z,54.85
2023-04-02T20:16:14.935Z,55.66
2023-04-02T20:18:43.229Z,55.66
2023-04-02T20:21:11.577Z,56.06
2023-04-02T20:23:39.626Z,56.05
2023-04-02T20:26:07.902Z,56.29
2023-04-02T20:28:36.182Z,56.87
2023-04-02T20:31:10.682Z,57.02
2023-04-02T20:33:39.595Z,57.50
2023-04-02T20:36:09.513Z,57.77
2023-04-02T20:38:37.700Z,57.82
2023-04-02T20:41:07.652Z,58.49
2023-04-02T20:43:36.227Z,58.75
2023-04-02T20:46:08.922Z,58.75
2023-04-02T20:48:41.038Z,59.55
2023-04-02T20:51:10.537Z,60.03
2023-04-02T20:53:39.195Z,60.65
2023-04-02T20:56:08.711Z,60.96
2023-04-02T20:58:38.133Z,61.53
2023-04-02T21:01:11.524Z,62.08
2023-04-02T21:03:40.967Z,62.19
2023-04-02T21:06:14.080Z,62.85
2023-04-02T21:08:42.025Z,63.40
2023-04-02T21:11:10.906Z,63.31
2023-04-02T21:13:39.192Z,63.93
2023-04-02T21:16:14.894Z,64.36
2023-04-02T21:18:44.690Z,64.30
2023-04-02T21:21:14.414Z,64.32
2023-04-02T21:23:43.510Z,64.43
2023-04-02T21:26:12.901Z,64.94
2023-04-02T21:28:40.817Z,65.18
2023-04-02T21:31:11.616Z,65.59
2023-04-02T21:33:41.458Z,65.96
2023-04-02T21:36:13.463Z,66.63
2023-04-02T21:38:43.426Z,66.80
2023-04-02T21:41:13.113Z,66.98
2023-04-02T21:43:41.507Z,67.02
2023-04-02T21:46:09.638Z,67.59
2023-04-02T21:48:37.630Z,67.76
2023-04-02T21:51:07.754Z,68.17
2023-04-02T21:53:37.071Z,68.53
2023-04-02T21:56:06.953Z,68.83
2023-04-02T21:58:35.494Z,68.71
2023-04-02T22:01:05.349Z,68.85
2023-04-02T22:03:35.842Z,69.27
2023-04-02T22:06:05.638Z,69.56
2023-04-02T22:08:33.808Z,70.16
2023-04-02T22:11:08.295Z,70.36
2023-04-02T22:13:37.194Z,70.44
2023-04-02T22:16:07.079Z,70.64
2023-04-02T22:18:35.740Z,70.97
2023-04-02T22:21:03.582Z,71.58
2023-04-02T22:23:31.969Z,72.22
2023-04-02T22:26:01.501Z,72.51
2023-04-02T22:28:30.853Z,72.83
2023-04-02T22:31:05.516Z,73.72
2023-04-02T22:33:33.931Z,73.41
2023-04-02T22:36:04.730Z,73.98
2023-04-02T22:38:32.916Z,74.06
2023-04-02T22:41:08.369Z,74.01
2023-04-02T22:43:38.722Z,75.52
2023-04-02T22:46:08.360Z,76.00
2023-04-02T22:48:36.691Z,77.32
2023-04-02T22:51:04.880Z,78.19
2023-04-02T22:53:32.908Z,79.05
2023-04-02T22:56:03.999Z,79.92
2023-04-02T22:58:31.877Z,81.10
2023-04-02T23:01:05.218Z,82.69
2023-04-02T23:03:33.172Z,83.44
2023-04-02T23:06:02.000Z,84.03
2023-04-02T23:08:29.983Z,84.40
2023-04-02T23:11:02.723Z,84.90
2023-04-02T23:13:30.863Z,84.99
2023-04-02T23:15:59.327Z,85.81
2023-04-02T23:18:28.673Z,86.07
2023-04-02T23:20:57.433Z,87.41
2023-04-02T23:23:25.399Z,88.02
2023-04-02T23:26:04.546Z,90.35
2023-04-02T23:28:32.467Z,91.23
2023-04-02T23:31:00.891Z,91.54
2023-04-02T23:33:30.593Z,92.03
2023-04-02T23:35:58.638Z,92.69
2023-04-02T23:38:27.929Z,92.86
2023-04-02T23:40:55.940Z,93.96
2023-04-02T23:43:23.800Z,94.01
2023-04-02T23:45:52.007Z,95.11
2023-04-02T23:48:19.881Z,96.94
2023-04-02T23:50:49.163Z,97.56
2023-04-02T23:53:18.753Z,97.60
2023-04-02T23:55:46.875Z,98.06
2023-04-02T23:58:14.797Z,98.19
